アルハンゲリスク の空港の天気 - METARとTAF

Arhangel'Sk ( ULAA / ARH ) - ロシア アルハンゲリスク
飛行場実況気象(Metar)
観測時間06/21 07:00 MSK (06/21 04:00 UTC)
風向・風速北西 6m/s 瞬間風速11m/s
視程10km以上
天気現象弱いしゅう雨
全天を覆う雲 雲底高度 270m
気温12℃
湿度94%
気圧993hPa
METARULAA 210400Z 32006G11MPS 270V340 9999 -SHRA OVC009CB 12/11 Q0993 R26/190065 NOSIG RMK QFE743/0991
過去の天気等 Google飛行場航空写真 Wunderground天気予報

過去48時間のMETAR

飛行場予報(TAF)
発表時間: 6/21 04:59 MSK (6/21 01:59 UTC)
予報対象時間: 21日6時 MSK ~ 22日6時 MSK
風向・風速西北西 5m/s 瞬間風速 10m/s
視程6000m
全天の8割程度の雲 雲底高度 210m
全天の8割程度の積乱雲 雲底高度 340m
21日6時 MSK ~ 21日9時 MSK に一時的に
風向・風速北西 6m/s 瞬間風速 14m/s
視程1000m
天気現象しゅう雨
全天の8割程度の雲 雲底高度 90m
全天の8割程度の積乱雲 雲底高度 300m
21日9時 MSK ~ 21日21時 MSK に一時的に
風向・風速西北西 8m/s 瞬間風速 17m/s
視程3100m
天気現象弱いしゅう雨
全天の8割程度の積乱雲 雲底高度 340m
21日21時 MSK から
風向・風速北北西 3m/s
視程10km以上
全天の8割程度の雲 雲底高度 340m
21日21時 MSK ~ 22日3時 MSK に一時的に
風向・風速北西 3m/s 瞬間風速 10m/s
視程3100m
天気現象弱いしゅう雨 もや
全天の8割程度の積乱雲 雲底高度 340m
TAF ULAA 210159Z 2103/2203 30005G10MPS 6000 BKN007 BKN011CB
TEMPO 2103/2106 31006G14MPS 1000 SHRA BKN003 BKN010CB
TEMPO 2106/2118 29008G17MPS 3100 -SHRA BKN011CB
FM211800 33003MPS 9999 BKN011
TEMPO 2118/2124 31003G10MPS 3100 -SHRA BR BKN011CB